createdAt,value
2022-11-07T00:02:22.166Z,34.00
2022-11-07T00:04:55.266Z,37.72
2022-11-07T00:07:27.773Z,43.72
2022-11-07T00:10:00.648Z,53.35
2022-11-07T00:12:36.753Z,42.58
2022-11-07T00:15:09.772Z,42.20
2022-11-07T00:17:42.414Z,27.02
2022-11-07T00:20:15.974Z,39.42
2022-11-07T00:22:48.502Z,46.88
2022-11-07T00:25:21.329Z,43.13
2022-11-07T00:27:53.877Z,41.42
2022-11-07T00:30:26.873Z,35.90
2022-11-07T00:33:00.444Z,38.28
2022-11-07T00:35:33.532Z,38.28
2022-11-07T00:38:06.079Z,34.95
2022-11-07T00:40:38.972Z,31.67
2022-11-07T00:43:12.093Z,26.58
2022-11-07T00:45:45.160Z,45.38
2022-11-07T00:48:17.802Z,38.70
2022-11-07T00:50:50.685Z,46.35
2022-11-07T00:53:23.521Z,29.88
2022-11-07T00:56:00.592Z,28.88
2022-11-07T00:58:33.268Z,27.00
2022-11-07T01:01:14.879Z,25.83
2022-11-07T01:04:06.231Z,27.52
2022-11-07T01:06:41.236Z,21.98
2022-11-07T01:09:15.712Z,18.02
2022-11-07T01:11:49.195Z,14.10
2022-11-07T01:14:22.738Z,15.70
2022-11-07T01:16:55.875Z,18.02
2022-11-07T01:19:28.411Z,13.30
2022-11-07T01:22:01.300Z,17.48
2022-11-07T01:24:33.977Z,14.63
2022-11-07T01:27:06.909Z,21.70
2022-11-07T01:29:39.726Z,15.88
2022-11-07T01:32:12.581Z,19.67
2022-11-07T01:34:45.235Z,18.13
2022-11-07T01:37:18.210Z,15.80
2022-11-07T01:39:50.776Z,20.13
2022-11-07T01:42:23.785Z,22.80
2022-11-07T01:44:58.209Z,12.77
2022-11-07T01:47:33.519Z,14.95
2022-11-07T01:50:06.898Z,15.25
2022-11-07T01:52:42.213Z,16.98
2022-11-07T01:55:33.917Z,16.80
2022-11-07T01:58:08.699Z,19.50
2022-11-07T02:00:41.667Z,19.23
2022-11-07T02:03:17.077Z,18.98
2022-11-07T02:05:54.835Z,20.48
2022-11-07T02:08:28.467Z,15.07
2022-11-07T02:11:02.996Z,12.98
2022-11-07T02:13:36.246Z,14.40
2022-11-07T02:16:08.917Z,16.58
2022-11-07T02:18:43.774Z,23.52
2022-11-07T02:21:30.588Z,28.02
2022-11-07T02:24:09.585Z,24.10
2022-11-07T02:26:42.995Z,20.55
2022-11-07T02:29:16.182Z,18.23
2022-11-07T02:31:48.702Z,31.95
2022-11-07T02:34:21.547Z,32.03
2022-11-07T02:36:54.169Z,29.42
2022-11-07T02:39:27.400Z,21.60
2022-11-07T02:42:00.515Z,33.22
2022-11-07T02:44:33.955Z,21.65
2022-11-07T02:47:06.419Z,33.72
2022-11-07T02:49:39.298Z,28.35
2022-11-07T02:52:11.778Z,27.58
2022-11-07T02:54:44.653Z,30.60
2022-11-07T02:57:17.158Z,29.25
2022-11-07T02:59:49.944Z,23.98
2022-11-07T03:02:22.828Z,18.73
2022-11-07T03:04:55.747Z,31.65
2022-11-07T03:07:28.443Z,25.05
2022-11-07T03:10:01.334Z,19.65
2022-11-07T03:12:33.762Z,29.90
2022-11-07T03:15:07.909Z,27.95
2022-11-07T03:17:41.080Z,27.95
2022-11-07T03:20:13.960Z,24.80
2022-11-07T03:22:49.437Z,22.33
2022-11-07T03:25:22.342Z,23.80
2022-11-07T03:27:55.226Z,31.88
2022-11-07T03:30:28.119Z,19.60
2022-11-07T03:33:00.800Z,31.33
2022-11-07T03:35:33.658Z,26.98
2022-11-07T03:38:06.151Z,22.50
2022-11-07T03:40:39.918Z,27.17
2022-11-07T03:43:12.690Z,19.63
2022-11-07T03:45:45.788Z,22.02
2022-11-07T03:48:18.332Z,16.70
2022-11-07T03:50:51.434Z,15.40
2022-11-07T03:53:25.813Z,18.25
2022-11-07T03:55:59.226Z,18.80
2022-11-07T03:58:31.811Z,18.90
2022-11-07T04:01:05.085Z,17.35
2022-11-07T04:03:37.642Z,21.00
2022-11-07T04:06:10.472Z,21.55
2022-11-07T04:08:43.050Z,19.33
2022-11-07T04:11:35.784Z,11.63
2022-11-07T04:14:27.047Z,10.85
2022-11-07T04:17:18.278Z,14.07
2022-11-07T04:19:52.251Z,11.85
2022-11-07T04:22:25.790Z,10.23
2022-11-07T04:24:58.547Z,15.63
2022-11-07T04:27:43.722Z,10.45
2022-11-07T04:30:20.256Z,9.95
2022-11-07T04:32:54.087Z,10.60
2022-11-07T04:35:27.925Z,11.93
2022-11-07T04:38:01.231Z,11.02
2022-11-07T04:40:33.829Z,10.32
2022-11-07T04:43:09.535Z,13.15
2022-11-07T04:45:41.989Z,8.38
2022-11-07T04:48:15.068Z,12.07
2022-11-07T04:50:47.840Z,8.25
2022-11-07T04:53:20.783Z,12.07
2022-11-07T04:55:53.432Z,13.90
2022-11-07T04:58:26.380Z,9.10
2022-11-07T05:00:58.842Z,12.18
2022-11-07T05:03:31.685Z,10.32
2022-11-07T05:06:05.067Z,8.75
2022-11-07T05:08:37.892Z,7.00
2022-11-07T05:11:10.446Z,10.90
2022-11-07T05:13:43.295Z,8.50
2022-11-07T05:16:19.949Z,6.50
2022-11-07T05:18:52.832Z,5.15
2022-11-07T05:21:25.490Z,11.32
2022-11-07T05:23:58.472Z,10.80
2022-11-07T13:34:27.633Z,5.72
2022-11-07T13:37:03.630Z,2.17
2022-11-07T13:39:37.021Z,1.98
2022-11-07T13:42:15.103Z,2.22
2022-11-07T13:44:55.997Z,6.32
2022-11-07T13:47:33.424Z,5.93
2022-11-07T13:50:17.187Z,3.38
2022-11-07T13:52:57.315Z,3.47
2022-11-07T13:55:34.939Z,4.05
2022-11-07T13:58:10.480Z,3.42
2022-11-07T14:00:43.111Z,4.88
2022-11-07T14:03:23.730Z,9.82
2022-11-07T14:05:56.843Z,4.70
2022-11-07T14:08:31.699Z,2.78
2022-11-07T14:11:12.964Z,4.68
2022-11-07T14:13:47.046Z,10.60
2022-11-07T14:16:27.018Z,4.55
2022-11-07T14:19:01.097Z,6.05
2022-11-07T14:21:34.955Z,2.80
2022-11-07T14:24:22.066Z,5.45
2022-11-07T14:26:59.012Z,10.32
2022-11-07T14:29:32.315Z,9.80
2022-11-07T14:32:05.933Z,9.80
2022-11-07T14:34:43.629Z,11.68
2022-11-07T14:37:20.382Z,10.07
2022-11-07T14:39:53.679Z,9.02
2022-11-07T14:42:26.454Z,15.05
2022-11-07T14:44:59.468Z,21.50
2022-11-07T14:47:33.584Z,13.93
2022-11-07T14:50:07.212Z,25.05
2022-11-07T14:52:42.048Z,12.75
2022-11-07T14:55:21.368Z,13.25
2022-11-07T14:57:54.058Z,19.55
2022-11-07T15:00:27.075Z,25.10
2022-11-07T15:03:00.111Z,18.45
2022-11-07T15:05:38.922Z,17.13
2022-11-07T15:08:29.037Z,16.70
2022-11-07T15:11:01.996Z,15.38
2022-11-07T15:13:35.389Z,13.98
2022-11-07T15:16:15.238Z,10.90
2022-11-07T15:18:49.060Z,14.35
2022-11-07T15:21:31.090Z,13.68
2022-11-07T15:24:22.147Z,10.20
2022-11-07T15:26:58.576Z,10.82
2022-11-07T15:29:33.206Z,12.13
2022-11-07T15:32:12.022Z,6.45
2022-11-07T15:35:03.663Z,9.23
2022-11-07T15:37:37.702Z,14.60
2022-11-07T15:40:13.792Z,21.42
2022-11-07T15:42:46.868Z,27.50
2022-11-07T15:45:19.483Z,26.08
2022-11-07T15:47:52.667Z,14.82
2022-11-07T15:52:58.136Z,15.27
2022-11-07T15:55:30.633Z,18.05
2022-11-07T15:58:03.450Z,25.25
2022-11-07T16:00:36.012Z,27.02
2022-11-07T16:03:13.030Z,22.92
2022-11-07T16:05:46.361Z,31.90
2022-11-07T16:08:20.450Z,25.02
2022-11-07T16:10:57.082Z,26.55
2022-11-07T16:13:30.025Z,27.60
2022-11-07T16:16:03.228Z,23.83
2022-11-07T16:18:42.732Z,23.45
2022-11-07T16:21:15.282Z,26.10
2022-11-07T16:23:50.747Z,25.25
2022-11-07T16:26:27.814Z,22.48
2022-11-07T16:29:00.716Z,43.72
2022-11-07T16:31:33.320Z,37.38
2022-11-07T16:34:06.415Z,19.67
2022-11-07T16:36:39.677Z,12.60
2022-11-07T16:39:17.219Z,15.63
2022-11-07T16:41:53.890Z,22.10
2022-11-07T16:44:26.888Z,10.93
2022-11-07T16:47:00.349Z,11.25
2022-11-07T16:49:34.190Z,12.48
2022-11-07T16:52:06.771Z,13.43
2022-11-07T16:54:40.248Z,16.80
2022-11-07T16:57:13.506Z,21.70
2022-11-07T16:59:46.740Z,24.38
2022-11-07T17:02:21.803Z,48.33
2022-11-07T17:04:55.040Z,50.40
2022-11-07T17:07:27.487Z,32.80
2022-11-07T17:10:01.648Z,25.83
2022-11-07T17:12:34.694Z,24.33
2022-11-07T17:15:07.789Z,56.00
2022-11-07T17:17:40.577Z,38.80
2022-11-07T17:20:41.124Z,23.15
2022-11-07T17:23:12.808Z,23.13
2022-11-07T17:25:49.180Z,12.35
2022-11-07T17:28:22.593Z,17.95
2022-11-07T17:30:55.544Z,12.57
2022-11-07T17:33:28.087Z,20.50
2022-11-07T17:36:01.040Z,15.32
2022-11-07T17:38:33.631Z,19.27
2022-11-07T17:41:17.462Z,23.45
2022-11-07T17:43:50.745Z,24.48
2022-11-07T17:46:28.278Z,26.80
2022-11-07T17:49:01.897Z,39.05
2022-11-07T17:51:38.337Z,44.92
2022-11-07T17:54:12.347Z,35.05
2022-11-07T17:56:45.267Z,36.50
2022-11-07T17:59:18.839Z,37.95
2022-11-07T18:01:51.948Z,21.65
2022-11-07T18:04:24.659Z,25.42
2022-11-07T18:06:57.500Z,16.88
2022-11-07T18:09:30.233Z,18.52
2022-11-07T18:12:03.731Z,15.60
2022-11-07T18:14:36.468Z,19.10
2022-11-07T18:17:09.296Z,22.48
2022-11-07T18:19:41.933Z,20.30
2022-11-07T18:22:14.934Z,23.70
2022-11-07T18:24:47.539Z,17.08
2022-11-07T18:27:20.500Z,17.50
2022-11-07T18:29:53.195Z,16.10
2022-11-07T18:32:27.654Z,15.23
2022-11-07T18:35:06.505Z,17.65
2022-11-07T18:37:39.601Z,22.30
2022-11-07T18:40:12.417Z,24.40
2022-11-07T18:42:46.034Z,21.83
2022-11-07T18:45:18.693Z,23.38
2022-11-07T18:47:51.612Z,34.15
2022-11-07T18:50:24.272Z,26.77
2022-11-07T18:52:57.230Z,21.17
2022-11-07T18:55:29.692Z,24.38
2022-11-07T18:58:02.597Z,15.25
2022-11-07T19:00:35.313Z,13.23
2022-11-07T19:03:08.205Z,20.92
2022-11-07T19:05:41.371Z,21.83
2022-11-07T19:08:14.571Z,19.23
2022-11-07T19:10:47.412Z,17.92
2022-11-07T19:13:20.355Z,14.43
2022-11-07T19:15:53.540Z,14.35
2022-11-07T19:18:26.376Z,10.82
2022-11-07T19:20:58.968Z,20.10
2022-11-07T19:23:32.232Z,20.25
2022-11-07T19:26:05.404Z,19.38
2022-11-07T19:28:38.355Z,16.65
2022-11-07T19:31:13.276Z,11.63
2022-11-07T19:33:47.046Z,11.27
2022-11-07T19:36:20.600Z,13.90
2022-11-07T19:38:54.123Z,19.17
2022-11-07T19:41:26.671Z,9.95
2022-11-07T19:44:04.658Z,10.25
2022-11-07T19:46:37.276Z,13.65
2022-11-07T19:49:10.306Z,20.13
2022-11-07T19:51:43.262Z,12.88
2022-11-07T19:54:17.330Z,15.57
2022-11-07T19:56:53.263Z,13.00
2022-11-07T19:59:30.410Z,14.98
2022-11-07T20:02:31.023Z,16.27
2022-11-07T20:04:55.966Z,11.07
2022-11-07T20:07:28.433Z,12.00
2022-11-07T20:10:01.997Z,12.57
2022-11-07T20:12:34.544Z,19.50
2022-11-07T20:15:07.964Z,18.15
2022-11-07T20:17:40.685Z,16.60
2022-11-07T20:20:14.041Z,19.25
2022-11-07T20:22:47.951Z,14.85
2022-11-07T20:25:21.284Z,13.45
2022-11-07T20:27:53.857Z,16.05
2022-11-07T20:30:26.840Z,13.65
2022-11-07T20:32:59.387Z,13.27
2022-11-07T20:35:32.273Z,12.57
2022-11-07T20:38:06.345Z,15.50
2022-11-07T20:40:39.200Z,14.82
2022-11-07T20:43:12.441Z,12.35
2022-11-07T20:45:45.256Z,13.73
2022-11-07T20:48:18.621Z,11.43
2022-11-07T20:50:51.790Z,9.85
2022-11-07T20:53:24.284Z,22.67
2022-11-07T20:55:57.079Z,15.95
2022-11-07T20:58:29.595Z,16.08
2022-11-07T21:01:02.686Z,11.85
2022-11-07T21:03:35.369Z,14.88
2022-11-07T21:06:11.728Z,15.15
2022-11-07T21:08:45.448Z,18.48
2022-11-07T21:11:18.519Z,16.17
2022-11-07T21:13:53.369Z,11.50
2022-11-07T21:18:58.610Z,19.00
2022-11-07T21:21:34.132Z,30.47
2022-11-07T21:24:06.827Z,30.88
2022-11-07T21:26:39.694Z,26.38
2022-11-07T21:29:12.605Z,24.25
2022-11-07T21:31:45.498Z,18.70
2022-11-07T21:34:18.340Z,14.65
2022-11-07T21:36:51.364Z,15.48
2022-11-07T21:39:23.933Z,16.98
2022-11-07T21:49:34.352Z,12.57
2022-11-07T21:52:07.142Z,17.63
